Time;durP1;ratioP1;P1;durP2;ratioP2;P2;SDS_P1;SDS_P2;PMS_P1;PMS_P2;Temp;Humidity;BMP_temperature;BMP_pressure;BME280_temperature;BME280_humidity;BME280_pressure;Samples;Min_cycle;Max_cycle;Signal;HPM_P1;HPM_P2
2021/06/23 00:02:20;;;;;;;8.63;3.50;;;24.60;91.60;;;;;;5056204;28;20025;-85
2021/06/23 00:04:46;;;;;;;5.72;2.80;;;24.60;91.60;;;;;;5056476;28;20022;-85
2021/06/23 00:07:11;;;;;;;5.65;2.72;;;24.60;91.40;;;;;;5056349;28;20070;-85
2021/06/23 00:09:37;;;;;;;7.47;3.03;;;24.50;91.10;;;;;;5054834;28;20060;-85
2021/06/23 00:12:04;;;;;;;2.63;2.40;;;24.60;90.90;;;;;;5056049;28;20033;-85
2021/06/23 00:14:30;;;;;;;7.45;3.15;;;24.50;91.00;;;;;;5055985;28;20028;-84
2021/06/23 00:16:56;;;;;;;10.23;3.15;;;24.60;90.60;;;;;;5054546;28;20054;-85
2021/06/23 00:19:22;;;;;;;6.75;3.20;;;24.60;90.50;;;;;;5056219;28;20356;-84
2021/06/23 00:21:48;;;;;;;9.15;3.33;;;24.60;90.90;;;;;;5071245;28;20021;-83
2021/06/23 00:24:14;;;;;;;5.93;3.03;;;24.60;91.30;;;;;;5071202;28;20044;-83
2021/06/23 00:26:39;;;;;;;6.95;3.22;;;24.60;91.80;;;;;;5054468;28;20036;-83
2021/06/23 00:29:05;;;;;;;8.20;3.25;;;24.60;92.10;;;;;;5071085;28;20082;-85
2021/06/23 00:31:33;;;;;;;7.07;3.20;;;24.60;92.00;;;;;;5055922;28;20072;-83
2021/06/23 00:34:02;;;;;;;7.18;3.05;;;24.60;92.10;;;;;;5055503;28;20025;-84
2021/06/23 00:36:28;;;;;;;5.80;2.90;;;24.50;92.00;;;;;;5054088;28;20477;-84
2021/06/23 00:38:53;;;;;;;6.68;2.97;;;24.50;91.80;;;;;;5070974;28;20060;-83
2021/06/23 00:41:19;;;;;;;3.75;2.78;;;24.50;91.70;;;;;;5055489;28;20108;-84
2021/06/23 00:43:49;;;;;;;2.80;2.47;;;24.50;91.50;;;;;;5054138;28;20025;-84
2021/06/23 00:46:16;;;;;;;4.72;2.70;;;24.50;91.30;;;;;;5055416;28;20032;-84
2021/06/23 00:48:42;;;;;;;7.15;3.05;;;24.40;91.30;;;;;;5054043;28;20029;-84
2021/06/23 00:51:08;;;;;;;5.45;2.85;;;24.50;91.20;;;;;;5070584;28;20082;-85
2021/06/23 00:53:34;;;;;;;6.20;2.90;;;24.50;91.10;;;;;;5053969;28;20467;-85
2021/06/23 00:56:00;;;;;;;4.25;2.53;;;24.40;91.00;;;;;;5055161;28;20395;-86
2021/06/23 00:58:27;;;;;;;8.18;3.03;;;24.40;91.00;;;;;;5053878;28;20032;-84
2021/06/23 01:00:55;;;;;;;4.85;3.03;;;24.40;90.90;;;;;;5055131;28;20017;-84
2021/06/23 01:03:22;;;;;;;4.97;3.13;;;24.40;91.10;;;;;;5055064;28;20017;-85
2021/06/23 01:05:48;;;;;;;7.95;2.85;;;24.40;91.10;;;;;;5055019;28;20079;-84
2021/06/23 01:08:15;;;;;;;5.22;2.85;;;24.40;91.10;;;;;;5070342;28;20482;-84
2021/06/23 01:10:40;;;;;;;5.95;3.10;;;24.40;91.40;;;;;;5053637;28;20498;-84
2021/06/23 01:13:25;;;;;;;5.93;2.95;;;24.40;91.30;;;;;;5054877;28;20176;-84
2021/06/23 01:15:53;;;;;;;8.55;3.35;;;24.40;91.20;;;;;;5055008;28;20099;-84
2021/06/23 01:18:19;;;;;;;4.85;3.00;;;24.40;91.20;;;;;;5053480;28;20021;-85
2021/06/23 01:20:46;;;;;;;11.52;3.67;;;24.30;91.00;;;;;;5070145;28;20375;-85
2021/06/23 01:23:16;;;;;;;6.60;3.42;;;24.30;90.90;;;;;;5054746;28;20028;-85
2021/06/23 01:25:43;;;;;;;7.38;3.38;;;24.30;90.60;;;;;;5054635;28;20421;-90
2021/06/23 01:28:09;;;;;;;10.02;3.55;;;24.30;90.50;;;;;;5054965;28;20079;-85
2021/06/23 01:30:35;;;;;;;10.63;3.65;;;24.30;90.40;;;;;;5055048;28;20025;-87
2021/06/23 01:33:02;;;;;;;4.82;3.10;;;24.30;90.10;;;;;;5054730;28;20024;-87
2021/06/23 01:35:30;;;;;;;5.88;3.40;;;24.30;89.70;;;;;;5053015;28;20017;-87
2021/06/23 01:37:56;;;;;;;6.13;3.47;;;24.30;89.10;;;;;;5053133;28;20025;-87
2021/06/23 01:40:22;;;;;;;10.75;3.50;;;24.30;88.70;;;;;;5054665;28;20032;-87
2021/06/23 01:42:48;;;;;;;5.95;2.97;;;24.40;88.80;;;;;;5054491;28;20383;-91
2021/06/23 01:45:14;;;;;;;5.93;3.42;;;24.30;88.90;;;;;;5052614;28;20379;-86
2021/06/23 01:47:41;;;;;;;7.78;3.30;;;24.30;88.90;;;;;;5054162;28;20029;-86
2021/06/23 01:50:09;;;;;;;7.60;3.28;;;24.40;89.50;;;;;;5052934;28;20116;-85
2021/06/23 01:52:37;;;;;;;18.38;3.40;;;24.30;89.80;;;;;;5052918;28;20112;-87
2021/06/23 01:55:03;;;;;;;7.57;2.78;;;24.30;89.80;;;;;;5054142;28;20033;-85
2021/06/23 01:57:30;;;;;;;4.95;3.22;;;24.30;89.70;;;;;;5053987;28;20102;-85
2021/06/23 01:59:56;;;;;;;4.90;2.80;;;24.30;89.60;;;;;;5054020;28;20049;-85
2021/06/23 02:02:29;;;;;;;5.95;3.13;;;24.30;89.90;;;;;;5052746;28;20114;-85
2021/06/23 02:05:27;;;;;;;6.60;3.30;;;24.30;90.00;;;;;;5054264;28;20363;-85
2021/06/23 02:07:59;;;;;;;5.40;3.22;;;24.30;90.00;;;;;;5068588;28;20056;-85
2021/06/23 02:10:54;;;;;;;3.80;2.75;;;24.30;90.00;;;;;;5053843;28;20031;-85
2021/06/23 02:13:29;;;;;;;6.07;2.95;;;24.30;90.00;;;;;;5052568;28;20028;-85
2021/06/23 02:16:08;;;;;;;4.28;3.08;;;24.30;90.00;;;;;;5052504;28;20078;-86
2021/06/23 02:18:34;;;;;;;6.57;3.20;;;24.30;90.20;;;;;;5071981;28;20107;-86
2021/06/23 02:21:03;;;;;;;7.57;2.95;;;24.20;90.30;;;;;;5072400;28;20390;-85
2021/06/23 02:23:29;;;;;;;3.85;2.83;;;24.20;90.40;;;;;;5073748;28;20051;-85
2021/06/23 02:25:56;;;;;;;5.00;3.00;;;24.20;90.40;;;;;;5072411;28;20021;-85
2021/06/23 02:28:22;;;;;;;7.30;3.33;;;24.20;90.30;;;;;;5072325;28;20028;-85
2021/06/23 02:30:50;;;;;;;3.85;3.00;;;24.20;90.40;;;;;;5072344;28;20027;-84
2021/06/23 02:33:17;;;;;;;6.57;2.97;;;24.20;90.40;;;;;;5073372;28;20462;-84
2021/06/23 02:35:44;;;;;;;3.78;2.83;;;24.20;90.40;;;;;;5073250;28;20045;-86
2021/06/23 02:38:10;;;;;;;4.05;2.95;;;24.20;90.30;;;;;;5072288;28;20028;-84
2021/06/23 02:40:36;;;;;;;4.50;3.15;;;24.20;90.40;;;;;;5073571;28;20047;-87
2021/06/23 02:43:03;;;;;;;5.68;3.42;;;24.20;90.30;;;;;;5072376;28;20107;-86
2021/06/23 02:45:30;;;;;;;6.97;3.40;;;24.20;90.40;;;;;;5072270;28;20059;-84
2021/06/23 02:47:56;;;;;;;35.53;4.22;;;24.20;90.10;;;;;;5072228;28;20021;-89
2021/06/23 02:50:23;;;;;;;8.55;3.30;;;24.20;90.00;;;;;;5072337;28;20036;-84
2021/06/23 02:52:49;;;;;;;4.47;2.90;;;24.30;90.00;;;;;;5073494;28;20064;-85
2021/06/23 02:55:21;;;;;;;6.63;3.30;;;24.30;90.00;;;;;;5072592;28;20031;-84
2021/06/23 02:57:48;;;;;;;6.68;2.80;;;24.30;89.70;;;;;;5074215;28;20028;-85
2021/06/23 03:00:14;;;;;;;4.95;3.13;;;24.30;89.80;;;;;;5077377;28;20366;-84
2021/06/23 03:02:40;;;;;;;6.85;2.90;;;24.40;89.50;;;;;;5077337;28;20028;-85
2021/06/23 03:05:06;;;;;;;7.75;3.60;;;24.40;89.30;;;;;;5077293;28;20026;-87
2021/06/23 03:07:33;;;;;;;10.90;3.20;;;24.40;89.40;;;;;;5075982;28;20489;-87
2021/06/23 03:10:11;;;;;;;5.00;3.40;;;24.50;89.00;;;;;;5075953;28;20028;-87
2021/06/23 03:12:37;;;;;;;4.70;3.20;;;24.50;89.10;;;;;;5075901;28;20029;-86
2021/06/23 03:15:05;;;;;;;3.65;2.75;;;24.50;89.90;;;;;;5075821;28;20066;-86
2021/06/23 03:17:31;;;;;;;8.55;2.97;;;24.50;89.20;;;;;;5075966;28;20474;-86
2021/06/23 03:19:57;;;;;;;6.85;2.95;;;24.50;89.40;;;;;;5075937;28;20078;-88
2021/06/23 03:22:22;;;;;;;5.10;3.10;;;24.60;88.80;;;;;;5076954;28;20489;-87
2021/06/23 03:24:49;;;;;;;7.05;2.67;;;24.60;88.70;;;;;;5077033;28;20051;-86
2021/06/23 03:27:15;;;;;;;8.10;2.90;;;24.60;88.70;;;;;;5076595;28;20534;-86
2021/06/23 03:29:40;;;;;;;6.47;3.13;;;24.60;88.80;;;;;;5076501;28;20108;-86
2021/06/23 03:32:10;;;;;;;5.30;3.05;;;24.60;89.00;;;;;;5075598;28;20028;-87
2021/06/23 03:34:38;;;;;;;6.28;3.42;;;24.60;89.20;;;;;;5076519;28;20021;-85
2021/06/23 03:37:04;;;;;;;7.32;3.78;;;24.70;88.70;;;;;;5076033;28;20532;-86
2021/06/23 03:39:30;;;;;;;5.30;3.10;;;24.70;88.70;;;;;;5075343;28;20024;-86
2021/06/23 03:41:55;;;;;;;4.40;3.15;;;24.70;88.90;;;;;;5076555;28;20100;-87
2021/06/23 03:44:21;;;;;;;6.82;3.58;;;24.80;88.40;;;;;;5075462;28;20565;-86
2021/06/23 03:46:47;;;;;;;7.40;3.50;;;24.80;88.80;;;;;;5075334;28;20024;-86
2021/06/23 03:49:12;;;;;;;8.93;3.47;;;24.90;88.80;;;;;;5075298;28;20081;-87
2021/06/23 03:51:38;;;;;;;8.68;3.17;;;24.90;88.70;;;;;;5075121;28;20111;-87
2021/06/23 03:54:04;;;;;;;5.32;3.72;;;25.00;88.70;;;;;;5075301;28;20058;-90
2021/06/23 03:56:30;;;;;;;5.57;3.20;;;25.00;89.40;;;;;;5077114;28;20081;-87
2021/06/23 03:58:56;;;;;;;6.60;3.45;;;25.00;88.60;;;;;;5075349;28;20027;-88
2021/06/23 04:01:21;;;;;;;4.82;4.03;;;25.00;89.20;;;;;;5075462;28;20493;-88
2021/06/23 04:03:47;;;;;;;7.07;3.40;;;25.00;89.60;;;;;;5076024;28;20359;-89
2021/06/23 04:06:13;;;;;;;5.53;3.55;;;25.00;89.60;;;;;;5074777;28;20024;-87
2021/06/23 04:08:39;;;;;;;7.93;3.78;;;25.00;89.90;;;;;;5074576;28;20028;-88
2021/06/23 04:11:04;;;;;;;5.00;3.72;;;25.10;90.00;;;;;;5075590;28;20029;-91
2021/06/23 04:13:30;;;;;;;5.10;3.10;;;25.20;89.90;;;;;;5075453;28;20086;-90
2021/06/23 04:15:56;;;;;;;7.20;3.58;;;25.20;90.10;;;;;;5075938;28;20063;-93
2021/06/23 04:18:22;;;;;;;12.30;3.88;;;25.20;90.10;;;;;;5076486;28;20028;-89
2021/06/23 04:20:47;;;;;;;5.10;3.42;;;25.20;90.10;;;;;;5075305;28;20021;-89
2021/06/23 04:23:13;;;;;;;4.75;3.53;;;25.30;90.10;;;;;;5076311;28;20024;-90
2021/06/23 04:25:38;;;;;;;5.93;3.70;;;25.30;90.10;;;;;;5075990;28;20070;-90
2021/06/23 04:28:06;;;;;;;11.18;3.58;;;25.30;90.10;;;;;;5080060;28;20028;-95
2021/06/23 04:30:31;;;;;;;4.13;3.72;;;25.30;89.70;;;;;;5075945;28;20028;-89
2021/06/23 04:32:57;;;;;;;5.50;3.60;;;25.30;89.50;;;;;;5075025;28;20483;-82
2021/06/23 04:35:23;;;;;;;8.50;3.55;;;25.30;90.00;;;;;;5077116;28;20020;-89
2021/06/23 04:37:48;;;;;;;9.20;3.60;;;25.30;90.00;;;;;;5075724;28;20037;-96
2021/06/23 04:40:16;;;;;;;6.15;3.55;;;25.40;89.60;;;;;;5076037;28;20025;-94
2021/06/23 04:42:42;;;;;;;4.68;3.92;;;25.40;89.80;;;;;;5075427;28;20044;-92
2021/06/23 04:45:11;;;;;;;4.88;3.50;;;25.40;90.10;;;;;;5077108;28;20027;-89
2021/06/23 04:47:37;;;;;;;5.57;3.97;;;25.40;90.10;;;;;;5076269;28;20115;-92
2021/06/23 04:50:05;;;;;;;5.82;3.70;;;25.40;90.00;;;;;;5075926;28;20021;-92
2021/06/23 04:52:30;;;;;;;7.15;3.63;;;25.40;90.10;;;;;;5075036;28;20024;-92
2021/06/23 04:54:56;;;;;;;8.77;3.78;;;25.40;90.00;;;;;;5077416;28;20028;-91
2021/06/23 04:57:22;;;;;;;5.93;3.80;;;25.40;90.10;;;;;;5074713;28;20025;-90
2021/06/23 04:59:47;;;;;;;6.00;3.80;;;25.40;90.30;;;;;;5075567;28;20078;-91
2021/06/23 05:02:14;;;;;;;7.10;3.95;;;25.30;90.10;;;;;;5074623;28;20031;-91
2021/06/23 05:04:40;;;;;;;8.20;5.10;;;25.30;90.10;;;;;;5075788;28;20020;-92
2021/06/23 05:07:07;;;;;;;12.38;4.20;;;25.40;90.00;;;;;;5074916;28;20082;-95
2021/06/23 05:09:35;;;;;;;7.32;3.95;;;25.40;89.80;;;;;;5075180;28;20432;-90
2021/06/23 05:12:01;;;;;;;7.55;4.47;;;25.40;89.40;;;;;;5074773;28;20095;-92
2021/06/23 05:14:27;;;;;;;5.75;4.15;;;25.40;89.40;;;;;;5075574;28;20029;-90
2021/06/23 05:16:53;;;;;;;7.10;4.10;;;25.50;89.60;;;;;;5075426;28;20494;-85
2021/06/23 05:19:20;;;;;;;8.93;4.30;;;25.60;89.70;;;;;;5074853;28;20013;-87
2021/06/23 05:21:46;;;;;;;10.63;4.22;;;25.70;89.10;;;;;;5072604;28;20474;-86
2021/06/23 05:24:12;;;;;;;9.82;4.00;;;25.80;89.60;;;;;;5073474;28;20031;-86
2021/06/23 05:26:38;;;;;;;7.78;4.40;;;25.90;89.60;;;;;;5073430;28;20033;-86
2021/06/23 05:29:04;;;;;;;6.93;4.15;;;26.00;89.40;;;;;;5073188;28;20028;-85
2021/06/23 05:31:31;;;;;;;9.40;4.07;;;26.10;88.80;;;;;;5074416;28;20028;-85
2021/06/23 05:33:56;;;;;;;9.30;4.75;;;26.20;88.50;;;;;;5074309;28;20100;-89
2021/06/23 05:36:22;;;;;;;7.85;4.10;;;26.20;88.40;;;;;;5073203;28;20147;-89
2021/06/23 05:38:48;;;;;;;7.45;4.60;;;26.20;87.80;;;;;;5073587;28;20020;-89
2021/06/23 05:41:14;;;;;;;7.40;4.38;;;26.20;88.20;;;;;;5054908;28;20035;-91
2021/06/23 05:43:40;;;;;;;5.05;4.25;;;26.10;88.80;;;;;;5053275;28;20036;-90
2021/06/23 05:46:06;;;;;;;4.78;4.25;;;26.20;88.60;;;;;;5053146;28;20028;-88
2021/06/23 05:48:32;;;;;;;9.90;4.57;;;26.10;88.80;;;;;;5054384;28;20025;-89
2021/06/23 05:50:57;;;;;;;6.13;4.50;;;26.20;88.90;;;;;;5053488;28;20081;-85
2021/06/23 05:53:23;;;;;;;6.85;4.18;;;26.20;89.20;;;;;;5054321;28;20147;-88
2021/06/23 05:55:49;;;;;;;8.23;4.40;;;26.20;89.20;;;;;;5053298;28;20025;-89
2021/06/23 05:58:14;;;;;;;11.88;4.25;;;26.20;89.70;;;;;;5053021;28;20025;-90
2021/06/23 06:00:41;;;;;;;5.63;4.38;;;26.20;89.70;;;;;;5053306;28;20025;-90
2021/06/23 06:03:07;;;;;;;5.55;3.92;;;26.20;89.90;;;;;;5053153;28;20025;-91
2021/06/23 06:05:33;;;;;;;6.72;4.15;;;26.20;89.80;;;;;;5054078;28;20018;-88
2021/06/23 06:07:59;;;;;;;8.95;4.15;;;26.20;89.80;;;;;;5053135;28;20032;-90
2021/06/23 06:10:25;;;;;;;7.47;3.78;;;26.20;90.40;;;;;;5052995;28;20020;-88
2021/06/23 06:12:51;;;;;;;4.82;3.95;;;26.30;90.30;;;;;;5052805;28;20494;-87
2021/06/23 06:15:17;;;;;;;7.00;3.80;;;26.30;90.00;;;;;;5052641;28;20025;-88
2021/06/23 06:17:43;;;;;;;5.88;3.53;;;26.30;89.50;;;;;;5052122;28;20032;-87
2021/06/23 06:20:10;;;;;;;6.18;4.03;;;26.40;89.10;;;;;;5053637;28;20025;-88
2021/06/23 06:22:36;;;;;;;6.65;3.70;;;26.40;88.50;;;;;;5069649;28;20784;-89
2021/06/23 06:25:02;;;;;;;5.40;4.00;;;26.40;88.10;;;;;;5072444;28;20115;-88
2021/06/23 06:27:28;;;;;;;8.70;4.07;;;26.40;87.80;;;;;;5072409;28;20036;-88
2021/06/23 06:29:53;;;;;;;6.70;3.92;;;26.40;88.20;;;;;;5072332;28;20029;-89
2021/06/23 06:32:19;;;;;;;6.13;4.10;;;26.30;88.50;;;;;;5072463;28;20459;-88
2021/06/23 06:34:45;;;;;;;8.13;4.22;;;26.40;88.40;;;;;;5072717;28;20048;-90
2021/06/23 06:37:10;;;;;;;5.70;3.85;;;26.60;88.90;;;;;;5071935;28;20494;-89
2021/06/23 06:39:36;;;;;;;4.40;4.00;;;26.70;88.70;;;;;;5070549;28;20029;-87
2021/06/23 06:42:03;;;;;;;8.68;4.10;;;26.90;88.10;;;;;;5072397;28;20017;-89
2021/06/23 06:44:31;;;;;;;7.15;4.30;;;27.00;87.80;;;;;;5071473;28;20489;-87
2021/06/23 06:47:00;;;;;;;5.38;4.15;;;27.10;87.30;;;;;;5073487;28;20591;-89
2021/06/23 06:49:29;;;;;;;6.03;4.05;;;27.20;86.60;;;;;;5072378;28;20029;-87
2021/06/23 06:51:58;;;;;;;4.50;3.88;;;27.20;86.10;;;;;;5072424;28;20035;-88
2021/06/23 06:54:27;;;;;;;9.32;4.85;;;27.30;86.00;;;;;;5072275;28;20520;-88
2021/06/23 06:56:53;;;;;;;;;;;27.30;85.90;;;;;;5072387;28;20032;-88
2021/06/23 06:59:19;;;;;;;5.63;3.72;;;27.30;86.60;;;;;;5073351;28;19966;-88
2021/06/23 07:01:46;;;;;;;5.95;3.88;;;27.30;86.50;;;;;;5072157;28;20029;-88
2021/06/23 07:04:14;;;;;;;5.20;3.70;;;27.30;86.40;;;;;;5072051;28;20074;-89
2021/06/23 07:06:40;;;;;;;3.88;3.55;;;27.30;86.50;;;;;;5073351;28;20443;-89
2021/06/23 07:09:06;;;;;;;6.35;4.00;;;27.40;86.80;;;;;;5069936;28;20029;-88
2021/06/23 07:11:32;;;;;;;6.95;4.07;;;27.40;87.10;;;;;;5052547;28;20360;-89
2021/06/23 07:13:57;;;;;;;8.32;4.20;;;27.40;87.20;;;;;;5051655;28;20414;-88
2021/06/23 07:16:25;;;;;;;7.20;4.30;;;27.40;87.30;;;;;;5051691;28;20075;-88
2021/06/23 07:18:52;;;;;;;9.52;4.22;;;27.40;87.10;;;;;;5053053;28;20394;-87
2021/06/23 07:21:18;;;;;;;6.85;3.95;;;27.40;87.50;;;;;;5051793;28;20045;-87
2021/06/23 07:23:46;;;;;;;5.97;4.30;;;27.40;87.30;;;;;;5053044;28;20021;-87
2021/06/23 07:26:13;;;;;;;7.45;4.55;;;27.60;86.80;;;;;;5051718;28;20055;-88
2021/06/23 07:28:45;;;;;;;6.43;4.20;;;27.70;85.90;;;;;;5051794;28;20025;-88
2021/06/23 07:31:12;;;;;;;6.10;4.07;;;27.70;85.30;;;;;;5051825;28;20031;-88
2021/06/23 07:33:41;;;;;;;8.10;3.83;;;27.80;85.00;;;;;;5051752;28;20025;-88
2021/06/23 07:38:52;;;;;;;8.48;3.95;;;27.90;85.30;;;;;;5055821;28;20493;-87
2021/06/23 07:41:17;;;;;;;8.75;4.07;;;27.90;85.00;;;;;;5071399;28;20021;-88
2021/06/23 07:43:43;;;;;;;5.72;4.07;;;28.00;84.80;;;;;;5073376;28;20024;-88
2021/06/23 07:46:08;;;;;;;5.57;4.32;;;28.00;84.60;;;;;;5076292;28;20031;-87
2021/06/23 07:48:37;;;;;;;4.38;3.90;;;28.00;84.50;;;;;;5074970;28;20115;-87
2021/06/23 07:56:12;;;;;;;10.10;4.85;;;28.20;83.10;;;;;;5076008;28;20021;-86
2021/06/23 08:09:27;;;;;;;7.22;4.47;;;27.90;83.60;;;;;;5075104;28;20032;-87
2021/06/23 08:12:05;;;;;;;10.13;4.53;;;27.80;83.50;;;;;;5074793;28;20028;-87
2021/06/23 08:14:30;;;;;;;11.60;4.70;;;27.80;83.90;;;;;;5074968;28;20038;-88
2021/06/23 08:16:56;;;;;;;8.82;4.53;;;27.70;83.20;;;;;;5074796;28;20028;-86
2021/06/23 08:19:22;;;;;;;10.70;4.45;;;27.70;83.20;;;;;;5074949;28;20024;-90
2021/06/23 08:21:47;;;;;;;5.30;4.00;;;27.70;83.40;;;;;;5074877;28;20056;-88
2021/06/23 08:24:13;;;;;;;8.00;4.28;;;27.70;83.90;;;;;;5074689;28;20020;-88
2021/06/23 08:26:39;;;;;;;5.57;4.45;;;27.80;84.10;;;;;;5074667;28;20040;-88
2021/06/23 08:29:04;;;;;;;5.20;4.25;;;27.90;84.30;;;;;;5075801;28;20035;-88
2021/06/23 08:31:30;;;;;;;6.20;4.57;;;27.90;84.20;;;;;;5074416;28;20039;-87
2021/06/23 08:33:56;;;;;;;9.25;4.45;;;28.00;84.30;;;;;;5075404;28;20041;-86
2021/06/23 08:36:22;;;;;;;9.98;4.47;;;28.00;84.90;;;;;;5074176;28;20051;-90
2021/06/23 08:38:47;;;;;;;10.55;4.50;;;28.00;85.60;;;;;;5068737;28;20479;-88
2021/06/23 08:41:14;;;;;;;13.70;4.55;;;28.00;85.90;;;;;;5054348;28;20471;-87
2021/06/23 08:43:40;;;;;;;19.35;4.90;;;28.00;86.50;;;;;;5055618;28;20017;-88
2021/06/23 08:46:06;;;;;;;15.15;5.10;;;28.00;86.40;;;;;;5054422;28;20390;-89
2021/06/23 08:48:32;;;;;;;7.32;4.43;;;28.00;86.90;;;;;;5054449;28;20025;-87
2021/06/23 08:51:06;;;;;;;9.98;4.35;;;28.00;86.20;;;;;;5055420;28;20062;-87
2021/06/23 08:53:34;;;;;;;7.70;4.20;;;28.00;85.80;;;;;;5054391;28;20021;-86
2021/06/23 08:56:00;;;;;;;6.05;4.18;;;28.10;86.00;;;;;;5054072;28;20494;-88
2021/06/23 08:58:26;;;;;;;7.63;4.40;;;28.10;85.60;;;;;;5054513;28;20044;-88
2021/06/23 09:00:53;;;;;;;7.95;4.55;;;28.20;86.40;;;;;;5053983;28;20489;-87
2021/06/23 09:03:19;;;;;;;5.68;3.97;;;28.30;86.40;;;;;;5054049;28;20021;-88
2021/06/23 09:05:47;;;;;;;11.43;4.60;;;28.40;85.60;;;;;;5054064;28;20017;-89
2021/06/23 09:08:13;;;;;;;11.40;4.25;;;28.50;85.40;;;;;;5053846;28;20033;-87
2021/06/23 09:10:39;;;;;;;6.32;4.53;;;28.70;84.80;;;;;;5055254;28;20065;-91
2021/06/23 09:13:07;;;;;;;6.03;4.25;;;28.80;83.80;;;;;;5054252;28;20082;-88
2021/06/23 09:15:48;;;;;;;7.22;4.57;;;28.90;83.10;;;;;;5055051;28;20028;-89
2021/06/23 09:18:26;;;;;;;9.13;4.47;;;29.00;82.30;;;;;;5055128;28;20522;-88
2021/06/23 09:21:25;;;;;;;7.55;4.47;;;29.10;82.30;;;;;;5054808;28;20471;-88
2021/06/23 09:23:58;;;;;;;;;;;29.20;82.00;;;;;;5032177;28;20031;-88
2021/06/23 14:49:10;;;;;;;18.17;6.10;;;35.30;70.50;;;;;;5091841;27;20370;-70
2021/06/23 14:51:36;;;;;;;17.42;5.82;;;36.40;67.90;;;;;;5091599;28;20030;-69
2021/06/23 14:54:04;;;;;;;20.73;5.22;;;37.50;64.90;;;;;;5090231;28;20123;-69
2021/06/23 14:56:30;;;;;;;24.23;14.68;;;38.50;62.00;;;;;;5091245;28;20016;-70
2021/06/23 14:58:56;;;;;;;20.30;7.90;;;39.30;60.60;;;;;;5090662;28;20111;-69
2021/06/23 15:01:22;;;;;;;35.45;9.43;;;40.10;59.20;;;;;;5091351;28;20113;-69
2021/06/23 15:03:47;;;;;;;23.33;8.20;;;40.70;58.10;;;;;;5090124;28;20036;-69
2021/06/23 15:06:13;;;;;;;16.83;6.50;;;41.20;56.70;;;;;;5090339;28;20020;-69
2021/06/23 15:08:39;;;;;;;17.98;5.57;;;41.40;56.10;;;;;;5090674;28;20040;-68
2021/06/23 15:11:07;;;;;;;20.70;5.03;;;41.10;55.60;;;;;;5089480;28;20012;-70
2021/06/23 15:13:33;;;;;;;15.95;5.28;;;40.90;56.40;;;;;;5090464;28;20043;-70
2021/06/23 15:15:59;;;;;;;21.42;5.43;;;40.70;56.00;;;;;;5089811;28;20159;-79
2021/06/23 15:18:25;;;;;;;19.77;4.30;;;40.20;55.90;;;;;;5084029;28;20139;-81
2021/06/23 15:20:52;;;;;;;24.98;7.80;;;39.70;56.80;;;;;;5087891;28;20078;-81
2021/06/23 15:23:19;;;;;;;13.00;4.50;;;39.10;58.10;;;;;;5070226;28;20028;-70
2021/06/23 15:25:46;;;;;;;19.15;4.50;;;38.50;58.80;;;;;;5070549;28;20486;-76
2021/06/23 15:28:12;;;;;;;37.00;8.90;;;37.90;59.40;;;;;;5071751;28;20031;-74
2021/06/23 15:30:37;;;;;;;18.90;5.18;;;37.10;60.90;;;;;;5090844;28;20025;-74
2021/06/23 15:33:03;;;;;;;18.70;5.25;;;36.30;62.50;;;;;;5088707;28;20024;-77
2021/06/23 15:35:29;;;;;;;36.35;13.52;;;35.60;64.30;;;;;;5090232;28;20032;-77
2021/06/23 15:37:55;;;;;;;18.13;5.82;;;35.00;66.50;;;;;;5090068;28;20024;-78
2021/06/23 15:40:21;;;;;;;18.77;5.15;;;34.50;67.10;;;;;;5090281;28;20040;-75
2021/06/23 15:42:47;;;;;;;24.25;5.10;;;33.90;68.70;;;;;;5090133;28;20486;-73
2021/06/23 15:45:14;;;;;;;17.92;5.07;;;33.50;70.00;;;;;;5088647;28;20106;-74
2021/06/23 15:47:41;;;;;;;127.35;21.08;;;33.10;71.50;;;;;;5089684;28;20482;-70
2021/06/23 15:50:08;;;;;;;71.88;18.42;;;32.70;73.10;;;;;;5089858;28;20031;-71
2021/06/23 15:52:34;;;;;;;52.95;18.40;;;32.40;75.90;;;;;;5088749;28;20437;-78
2021/06/23 15:55:00;;;;;;;67.85;22.27;;;32.10;76.80;;;;;;5069784;28;20025;-72
2021/06/23 15:57:27;;;;;;;104.93;34.47;;;31.80;77.90;;;;;;5070005;28;20389;-82
2021/06/23 15:59:53;;;;;;;52.70;12.40;;;31.50;79.50;;;;;;5060500;28;20036;-81
2021/06/23 16:02:19;;;;;;;35.50;12.02;;;30.60;91.50;;;;;;5055042;28;20075;-82
2021/06/23 16:04:45;;;;;;;22.10;7.85;;;30.00;92.20;;;;;;5054790;28;20371;-75
2021/06/23 16:07:12;;;;;;;23.80;6.95;;;29.60;91.50;;;;;;5056580;28;20058;-71
2021/06/23 16:09:40;;;;;;;16.95;5.00;;;29.30;91.50;;;;;;5068501;28;20020;-73
2021/06/23 16:12:07;;;;;;;18.05;5.40;;;29.10;91.60;;;;;;5075557;28;20418;-72
2021/06/23 16:14:34;;;;;;;20.45;5.45;;;29.00;91.70;;;;;;5066213;28;20021;-72
2021/06/23 16:17:00;;;;;;;14.20;5.20;;;28.90;92.00;;;;;;5056658;28;20017;-76
2021/06/23 16:19:26;;;;;;;19.13;6.00;;;28.90;91.80;;;;;;5056136;28;20155;-87
2021/06/23 16:21:58;;;;;;;25.40;5.80;;;28.90;92.30;;;;;;5054549;28;20108;-83
2021/06/23 16:24:24;;;;;;;17.75;5.25;;;28.90;92.30;;;;;;5071615;28;20021;-75
2021/06/23 16:26:51;;;;;;;27.80;6.03;;;28.90;92.30;;;;;;5059238;28;20029;-83
2021/06/23 16:29:17;;;;;;;28.63;6.78;;;28.90;93.70;;;;;;5055777;28;20581;-83
2021/06/23 16:31:45;;;;;;;25.23;6.43;;;28.80;94.80;;;;;;5054428;28;20074;-82
2021/06/23 16:34:10;;;;;;;28.50;6.88;;;28.70;94.50;;;;;;5054432;28;20110;-82
2021/06/23 16:36:36;;;;;;;30.17;6.82;;;28.50;94.70;;;;;;5055700;28;20479;-83
2021/06/23 16:39:04;;;;;;;25.90;7.13;;;28.40;94.50;;;;;;5054291;28;20025;-83
2021/06/23 16:41:29;;;;;;;25.65;7.50;;;28.30;95.20;;;;;;5054245;28;20032;-82
2021/06/23 16:43:55;;;;;;;28.67;7.60;;;28.10;96.00;;;;;;5054268;28;20025;-83
2021/06/23 16:46:21;;;;;;;26.88;8.40;;;28.00;96.20;;;;;;5055248;28;20041;-83
2021/06/23 16:48:47;;;;;;;27.88;7.30;;;27.80;96.70;;;;;;5055152;28;20087;-81
2021/06/23 16:51:13;;;;;;;21.38;8.13;;;27.80;97.20;;;;;;5055715;28;20028;-81
2021/06/23 16:53:38;;;;;;;26.13;7.30;;;27.70;97.70;;;;;;5055319;28;20017;-82
2021/06/23 16:56:04;;;;;;;29.08;8.20;;;27.60;97.80;;;;;;5053991;28;20063;-82
2021/06/23 16:58:32;;;;;;;29.48;7.95;;;27.60;98.30;;;;;;5055149;28;20104;-82
2021/06/23 17:01:04;;;;;;;32.50;8.20;;;27.50;98.20;;;;;;5053877;28;20411;-81
2021/06/23 17:03:30;;;;;;;29.33;8.57;;;27.40;98.30;;;;;;5054421;28;20440;-81
2021/06/23 17:05:57;;;;;;;28.92;8.18;;;27.40;97.90;;;;;;5053777;28;20112;-82
2021/06/23 17:08:23;;;;;;;37.35;8.63;;;27.30;98.20;;;;;;5053634;28;20025;-82
2021/06/23 17:10:49;;;;;;;31.42;8.88;;;27.20;97.80;;;;;;5054393;28;20463;-83
2021/06/23 17:13:16;;;;;;;36.42;8.63;;;27.20;98.30;;;;;;5054197;28;20028;-83
2021/06/23 17:15:43;;;;;;;24.58;7.10;;;27.20;98.50;;;;;;5075342;28;20024;-86
2021/06/23 17:18:09;;;;;;;32.35;7.70;;;27.10;98.30;;;;;;5074236;28;20028;-84
2021/06/23 17:20:36;;;;;;;33.67;8.70;;;27.10;98.50;;;;;;5075188;28;20383;-85
2021/06/23 17:23:04;;;;;;;33.95;8.30;;;27.00;98.80;;;;;;5073551;28;20025;-84
2021/06/23 17:25:30;;;;;;;38.25;9.77;;;27.00;98.70;;;;;;5072851;28;20031;-85
2021/06/23 17:27:57;;;;;;;49.08;9.77;;;26.90;99.10;;;;;;5073399;28;20025;-84
2021/06/23 17:30:24;;;;;;;37.42;8.50;;;26.90;98.90;;;;;;5074632;28;20103;-80
2021/06/23 17:32:50;;;;;;;61.88;32.13;;;26.90;98.70;;;;;;5075359;28;20028;-88
2021/06/23 17:35:16;;;;;;;44.80;11.40;;;26.80;98.50;;;;;;5073227;28;20021;-82
2021/06/23 17:37:43;;;;;;;43.15;9.45;;;26.80;98.70;;;;;;5074506;28;20051;-83
2021/06/23 17:40:12;;;;;;;36.88;8.25;;;26.80;98.40;;;;;;5073066;28;20025;-79
2021/06/23 17:42:38;;;;;;;38.88;9.38;;;26.80;98.40;;;;;;5074302;28;20082;-79
2021/06/23 17:45:06;;;;;;;41.92;8.90;;;26.70;98.50;;;;;;5074212;28;20054;-79
2021/06/23 17:47:32;;;;;;;45.17;9.68;;;26.70;98.80;;;;;;5073832;28;20078;-78
2021/06/23 17:49:57;;;;;;;44.03;9.82;;;26.60;98.80;;;;;;5074247;28;20056;-78
2021/06/23 17:52:24;;;;;;;38.25;9.40;;;26.60;99.20;;;;;;5074210;28;20020;-79
2021/06/23 17:54:51;;;;;;;44.90;9.13;;;26.60;99.10;;;;;;5073938;28;20025;-80
2021/06/23 17:57:17;;;;;;;55.55;11.27;;;26.60;99.20;;;;;;5072680;28;20544;-78
2021/06/23 17:59:43;;;;;;;46.50;10.02;;;26.60;99.30;;;;;;5074233;28;20025;-77
2021/06/23 18:02:08;;;;;;;47.80;9.52;;;26.50;99.30;;;;;;5073731;28;20029;-77
2021/06/23 18:04:35;;;;;;;43.45;10.38;;;26.50;99.20;;;;;;5072803;28;20024;-80
2021/06/23 18:07:01;;;;;;;47.50;11.48;;;26.50;99.00;;;;;;5073566;28;20103;-80
2021/06/23 18:09:27;;;;;;;58.50;10.52;;;26.50;98.90;;;;;;5073556;28;20416;-79
2021/06/23 18:11:53;;;;;;;60.97;10.65;;;26.40;98.60;;;;;;5072300;28;20108;-79
2021/06/23 18:14:19;;;;;;;70.63;10.50;;;26.40;98.40;;;;;;5073562;28;20021;-79
2021/06/23 18:16:50;;;;;;;67.22;11.27;;;26.40;98.30;;;;;;5072253;28;20073;-78
2021/06/23 18:19:22;;;;;;;56.72;10.95;;;26.40;98.00;;;;;;5073508;28;20031;-79
2021/06/23 18:21:48;;;;;;;62.40;11.20;;;26.40;97.90;;;;;;5071703;28;20021;-78
2021/06/23 18:24:13;;;;;;;58.72;10.15;;;26.40;97.80;;;;;;5072121;28;20035;-79